sensor_id;sensor_type;location;lat;lon;timestamp;P1;durP1;ratioP1;P2;durP2;ratioP2
52468;SDS011;38381;53.688;10.776;2022-11-04T00:02:28;5.55;;;4.50;;
52468;SDS011;38381;53.688;10.776;2022-11-04T00:07:28;8.23;;;5.55;;
52468;SDS011;38381;53.688;10.776;2022-11-04T00:12:47;5.10;;;4.47;;
52468;SDS011;38381;53.688;10.776;2022-11-04T00:17:51;8.55;;;4.70;;
52468;SDS011;38381;53.688;10.776;2022-11-04T00:22:52;7.70;;;4.88;;
52468;SDS011;38381;53.688;10.776;2022-11-04T00:28:12;7.97;;;4.68;;
52468;SDS011;38381;53.688;10.776;2022-11-04T00:33:32;8.25;;;5.40;;
52468;SDS011;38381;53.688;10.776;2022-11-04T00:38:33;8.75;;;5.30;;
52468;SDS011;38381;53.688;10.776;2022-11-04T00:43:33;6.28;;;4.15;;
52468;SDS011;38381;53.688;10.776;2022-11-04T00:48:34;10.52;;;5.05;;
52468;SDS011;38381;53.688;10.776;2022-11-04T00:53:34;5.32;;;4.25;;
52468;SDS011;38381;53.688;10.776;2022-11-04T00:58:35;9.53;;;5.10;;
52468;SDS011;38381;53.688;10.776;2022-11-04T01:03:36;6.28;;;4.60;;
52468;SDS011;38381;53.688;10.776;2022-11-04T01:08:37;8.48;;;5.88;;
52468;SDS011;38381;53.688;10.776;2022-11-04T01:13:38;7.90;;;4.88;;
52468;SDS011;38381;53.688;10.776;2022-11-04T01:18:38;8.32;;;5.03;;
52468;SDS011;38381;53.688;10.776;2022-11-04T01:23:40;7.45;;;5.20;;
52468;SDS011;38381;53.688;10.776;2022-11-04T01:28:41;8.90;;;5.17;;
52468;SDS011;38381;53.688;10.776;2022-11-04T01:33:42;5.72;;;5.10;;
52468;SDS011;38381;53.688;10.776;2022-11-04T01:38:43;10.05;;;5.07;;
52468;SDS011;38381;53.688;10.776;2022-11-04T01:49:35;7.90;;;6.20;;
52468;SDS011;38381;53.688;10.776;2022-11-04T01:54:39;7.43;;;4.72;;
52468;SDS011;38381;53.688;10.776;2022-11-04T01:59:42;10.82;;;7.10;;
52468;SDS011;38381;53.688;10.776;2022-11-04T02:04:42;6.93;;;6.03;;
52468;SDS011;38381;53.688;10.776;2022-11-04T02:09:43;9.10;;;5.05;;
52468;SDS011;38381;53.688;10.776;2022-11-04T02:14:44;6.65;;;5.55;;
52468;SDS011;38381;53.688;10.776;2022-11-04T02:30:31;7.30;;;5.30;;
52468;SDS011;38381;53.688;10.776;2022-11-04T02:46:03;9.73;;;5.88;;
52468;SDS011;38381;53.688;10.776;2022-11-04T02:51:13;6.18;;;5.43;;
52468;SDS011;38381;53.688;10.776;2022-11-04T02:56:18;6.82;;;5.55;;
52468;SDS011;38381;53.688;10.776;2022-11-04T03:01:21;8.32;;;5.88;;
52468;SDS011;38381;53.688;10.776;2022-11-04T03:06:26;7.50;;;6.22;;
52468;SDS011;38381;53.688;10.776;2022-11-04T03:11:28;8.65;;;6.18;;
52468;SDS011;38381;53.688;10.776;2022-11-04T03:16:32;8.10;;;5.97;;
52468;SDS011;38381;53.688;10.776;2022-11-04T03:21:38;9.57;;;5.85;;
52468;SDS011;38381;53.688;10.776;2022-11-04T03:26:54;9.30;;;6.25;;
52468;SDS011;38381;53.688;10.776;2022-11-04T03:37:24;7.07;;;6.25;;
52468;SDS011;38381;53.688;10.776;2022-11-04T03:42:25;8.20;;;6.00;;
52468;SDS011;38381;53.688;10.776;2022-11-04T03:47:28;9.77;;;6.95;;
52468;SDS011;38381;53.688;10.776;2022-11-04T03:52:29;10.85;;;7.32;;
52468;SDS011;38381;53.688;10.776;2022-11-04T04:08:14;10.07;;;7.75;;
52468;SDS011;38381;53.688;10.776;2022-11-04T04:13:25;11.43;;;8.02;;
52468;SDS011;38381;53.688;10.776;2022-11-04T04:18:47;8.68;;;7.63;;
52468;SDS011;38381;53.688;10.776;2022-11-04T04:23:52;6.88;;;6.20;;
52468;SDS011;38381;53.688;10.776;2022-11-04T04:29:14;10.35;;;9.07;;
52468;SDS011;38381;53.688;10.776;2022-11-04T04:34:21;7.80;;;6.72;;
52468;SDS011;38381;53.688;10.776;2022-11-04T04:39:24;10.90;;;8.32;;
52468;SDS011;38381;53.688;10.776;2022-11-04T04:44:45;15.27;;;10.90;;
52468;SDS011;38381;53.688;10.776;2022-11-04T04:50:02;11.95;;;8.20;;
52468;SDS011;38381;53.688;10.776;2022-11-04T04:55:03;11.63;;;8.98;;
52468;SDS011;38381;53.688;10.776;2022-11-04T05:00:05;13.52;;;8.73;;
52468;SDS011;38381;53.688;10.776;2022-11-04T05:05:07;11.70;;;9.45;;
52468;SDS011;38381;53.688;10.776;2022-11-04T05:10:09;11.30;;;8.70;;
52468;SDS011;38381;53.688;10.776;2022-11-04T05:15:11;9.43;;;7.82;;
52468;SDS011;38381;53.688;10.776;2022-11-04T05:20:11;10.63;;;8.35;;
52468;SDS011;38381;53.688;10.776;2022-11-04T05:25:12;8.43;;;7.65;;
52468;SDS011;38381;53.688;10.776;2022-11-04T05:30:12;11.52;;;8.73;;
52468;SDS011;38381;53.688;10.776;2022-11-04T05:35:13;8.75;;;7.28;;
52468;SDS011;38381;53.688;10.776;2022-11-04T05:40:13;10.63;;;9.15;;
52468;SDS011;38381;53.688;10.776;2022-11-04T05:45:13;9.02;;;6.80;;
52468;SDS011;38381;53.688;10.776;2022-11-04T05:50:14;9.05;;;7.15;;
52468;SDS011;38381;53.688;10.776;2022-11-04T05:55:14;11.57;;;8.43;;
52468;SDS011;38381;53.688;10.776;2022-11-04T06:00:15;7.63;;;6.72;;
52468;SDS011;38381;53.688;10.776;2022-11-04T06:05:15;8.88;;;8.07;;
52468;SDS011;38381;53.688;10.776;2022-11-04T06:10:16;9.35;;;7.60;;
52468;SDS011;38381;53.688;10.776;2022-11-04T06:15:16;7.57;;;6.78;;
52468;SDS011;38381;53.688;10.776;2022-11-04T06:20:17;9.88;;;6.85;;
52468;SDS011;38381;53.688;10.776;2022-11-04T06:25:17;10.68;;;7.13;;
52468;SDS011;38381;53.688;10.776;2022-11-04T06:30:17;8.10;;;5.80;;
52468;SDS011;38381;53.688;10.776;2022-11-04T06:35:18;8.67;;;6.50;;
52468;SDS011;38381;53.688;10.776;2022-11-04T06:40:18;9.52;;;6.10;;
52468;SDS011;38381;53.688;10.776;2022-11-04T06:45:19;11.03;;;9.10;;
52468;SDS011;38381;53.688;10.776;2022-11-04T06:50:19;7.30;;;5.28;;
52468;SDS011;38381;53.688;10.776;2022-11-04T06:55:20;6.68;;;5.70;;
52468;SDS011;38381;53.688;10.776;2022-11-04T07:00:20;6.22;;;5.60;;
52468;SDS011;38381;53.688;10.776;2022-11-04T07:05:21;6.30;;;5.13;;
52468;SDS011;38381;53.688;10.776;2022-11-04T07:10:21;6.18;;;5.57;;
52468;SDS011;38381;53.688;10.776;2022-11-04T07:15:21;5.65;;;4.55;;
52468;SDS011;38381;53.688;10.776;2022-11-04T07:20:22;5.40;;;4.65;;
52468;SDS011;38381;53.688;10.776;2022-11-04T07:25:22;5.30;;;4.45;;
52468;SDS011;38381;53.688;10.776;2022-11-04T07:30:23;4.38;;;3.70;;
52468;SDS011;38381;53.688;10.776;2022-11-04T07:35:23;5.50;;;4.10;;
52468;SDS011;38381;53.688;10.776;2022-11-04T07:40:25;4.75;;;4.25;;
52468;SDS011;38381;53.688;10.776;2022-11-04T07:45:25;5.00;;;4.37;;
52468;SDS011;38381;53.688;10.776;2022-11-04T07:50:26;5.78;;;3.80;;
52468;SDS011;38381;53.688;10.776;2022-11-04T07:55:27;4.82;;;3.88;;
52468;SDS011;38381;53.688;10.776;2022-11-04T08:00:27;6.25;;;4.28;;
52468;SDS011;38381;53.688;10.776;2022-11-04T08:05:27;5.30;;;4.47;;
52468;SDS011;38381;53.688;10.776;2022-11-04T08:10:28;7.03;;;4.15;;
52468;SDS011;38381;53.688;10.776;2022-11-04T08:15:29;5.57;;;3.90;;
52468;SDS011;38381;53.688;10.776;2022-11-04T08:20:29;5.18;;;3.72;;
52468;SDS011;38381;53.688;10.776;2022-11-04T08:25:30;4.55;;;3.88;;
52468;SDS011;38381;53.688;10.776;2022-11-04T08:30:30;5.90;;;5.40;;
52468;SDS011;38381;53.688;10.776;2022-11-04T08:35:30;4.20;;;3.80;;
52468;SDS011;38381;53.688;10.776;2022-11-04T08:40:31;5.32;;;4.30;;
52468;SDS011;38381;53.688;10.776;2022-11-04T08:45:32;4.30;;;3.88;;
52468;SDS011;38381;53.688;10.776;2022-11-04T08:50:33;4.80;;;4.28;;
52468;SDS011;38381;53.688;10.776;2022-11-04T08:55:34;4.93;;;4.03;;
52468;SDS011;38381;53.688;10.776;2022-11-04T09:00:35;4.75;;;4.30;;
52468;SDS011;38381;53.688;10.776;2022-11-04T09:05:36;6.20;;;5.13;;
52468;SDS011;38381;53.688;10.776;2022-11-04T09:10:44;5.00;;;4.35;;
52468;SDS011;38381;53.688;10.776;2022-11-04T09:15:46;4.32;;;3.92;;
52468;SDS011;38381;53.688;10.776;2022-11-04T09:20:48;5.22;;;4.43;;
52468;SDS011;38381;53.688;10.776;2022-11-04T09:25:48;6.67;;;5.30;;
52468;SDS011;38381;53.688;10.776;2022-11-04T09:30:48;5.28;;;4.55;;
52468;SDS011;38381;53.688;10.776;2022-11-04T09:35:53;5.85;;;4.80;;
52468;SDS011;38381;53.688;10.776;2022-11-04T09:40:55;7.00;;;4.38;;
52468;SDS011;38381;53.688;10.776;2022-11-04T09:45:55;5.57;;;4.53;;
52468;SDS011;38381;53.688;10.776;2022-11-04T09:50:59;5.05;;;4.40;;
52468;SDS011;38381;53.688;10.776;2022-11-04T09:56:12;7.35;;;4.82;;
52468;SDS011;38381;53.688;10.776;2022-11-04T10:06:32;6.22;;;4.35;;
52468;SDS011;38381;53.688;10.776;2022-11-04T10:27:28;5.90;;;4.20;;
52468;SDS011;38381;53.688;10.776;2022-11-04T10:32:35;5.45;;;4.85;;
52468;SDS011;38381;53.688;10.776;2022-11-04T10:37:40;4.07;;;3.72;;
52468;SDS011;38381;53.688;10.776;2022-11-04T10:42:41;4.55;;;3.63;;
52468;SDS011;38381;53.688;10.776;2022-11-04T10:47:44;3.60;;;3.05;;
52468;SDS011;38381;53.688;10.776;2022-11-04T10:52:53;4.22;;;3.60;;
52468;SDS011;38381;53.688;10.776;2022-11-04T10:57:57;3.90;;;3.35;;
52468;SDS011;38381;53.688;10.776;2022-11-04T11:02:58;4.03;;;3.35;;
52468;SDS011;38381;53.688;10.776;2022-11-04T11:07:59;3.83;;;3.47;;
52468;SDS011;38381;53.688;10.776;2022-11-04T11:13:05;3.17;;;2.80;;
52468;SDS011;38381;53.688;10.776;2022-11-04T11:18:22;3.95;;;3.55;;
52468;SDS011;38381;53.688;10.776;2022-11-04T11:28:40;3.13;;;2.78;;
52468;SDS011;38381;53.688;10.776;2022-11-04T11:33:51;3.35;;;2.92;;
52468;SDS011;38381;53.688;10.776;2022-11-04T11:44:19;3.30;;;3.00;;
52468;SDS011;38381;53.688;10.776;2022-11-04T11:49:25;3.05;;;2.67;;
52468;SDS011;38381;53.688;10.776;2022-11-04T11:54:35;3.60;;;3.00;;
52468;SDS011;38381;53.688;10.776;2022-11-04T11:59:45;3.42;;;3.08;;
52468;SDS011;38381;53.688;10.776;2022-11-04T12:04:49;3.03;;;2.72;;
52468;SDS011;38381;53.688;10.776;2022-11-04T12:25:58;2.67;;;2.47;;
52468;SDS011;38381;53.688;10.776;2022-11-04T12:31:12;2.97;;;2.17;;
52468;SDS011;38381;53.688;10.776;2022-11-04T13:08:49;3.55;;;2.53;;
52468;SDS011;38381;53.688;10.776;2022-11-04T13:25:27;3.05;;;2.28;;
52468;SDS011;38381;53.688;10.776;2022-11-04T13:35:25;2.78;;;2.33;;
52468;SDS011;38381;53.688;10.776;2022-11-04T13:40:41;3.17;;;2.40;;
52468;SDS011;38381;53.688;10.776;2022-11-04T13:45:52;4.43;;;3.13;;
52468;SDS011;38381;53.688;10.776;2022-11-04T13:55:55;6.13;;;3.40;;
52468;SDS011;38381;53.688;10.776;2022-11-04T14:06:11;7.13;;;3.15;;
52468;SDS011;38381;53.688;10.776;2022-11-04T14:11:11;4.13;;;3.13;;
52468;SDS011;38381;53.688;10.776;2022-11-04T14:26:25;3.80;;;3.20;;
52468;SDS011;38381;53.688;10.776;2022-11-04T14:31:39;3.70;;;2.72;;
52468;SDS011;38381;53.688;10.776;2022-11-04T14:36:45;5.65;;;2.95;;
52468;SDS011;38381;53.688;10.776;2022-11-04T14:41:50;4.95;;;3.15;;
52468;SDS011;38381;53.688;10.776;2022-11-04T14:46:54;5.97;;;3.65;;
52468;SDS011;38381;53.688;10.776;2022-11-04T14:51:58;4.05;;;3.25;;
52468;SDS011;38381;53.688;10.776;2022-11-04T14:57:12;3.47;;;3.17;;
52468;SDS011;38381;53.688;10.776;2022-11-04T15:02:16;6.57;;;2.72;;
52468;SDS011;38381;53.688;10.776;2022-11-04T15:07:34;2.25;;;1.85;;
52468;SDS011;38381;53.688;10.776;2022-11-04T15:12:36;3.47;;;1.80;;
52468;SDS011;38381;53.688;10.776;2022-11-04T15:17:49;2.92;;;2.38;;
52468;SDS011;38381;53.688;10.776;2022-11-04T15:22:50;4.30;;;1.90;;
52468;SDS011;38381;53.688;10.776;2022-11-04T15:27:53;3.67;;;1.97;;
52468;SDS011;38381;53.688;10.776;2022-11-04T15:32:55;2.20;;;1.83;;
52468;SDS011;38381;53.688;10.776;2022-11-04T15:38:00;2.45;;;1.95;;
52468;SDS011;38381;53.688;10.776;2022-11-04T15:43:03;3.67;;;2.25;;
52468;SDS011;38381;53.688;10.776;2022-11-04T15:53:32;4.28;;;1.83;;
52468;SDS011;38381;53.688;10.776;2022-11-04T15:58:35;2.47;;;1.77;;
52468;SDS011;38381;53.688;10.776;2022-11-04T16:03:36;1.95;;;1.67;;
52468;SDS011;38381;53.688;10.776;2022-11-04T16:08:36;6.28;;;2.22;;
52468;SDS011;38381;53.688;10.776;2022-11-04T16:13:37;3.58;;;2.22;;
52468;SDS011;38381;53.688;10.776;2022-11-04T16:18:41;2.20;;;1.98;;
52468;SDS011;38381;53.688;10.776;2022-11-04T16:23:49;3.33;;;2.15;;
52468;SDS011;38381;53.688;10.776;2022-11-04T16:28:53;3.17;;;1.52;;
52468;SDS011;38381;53.688;10.776;2022-11-04T16:33:55;3.63;;;1.85;;
52468;SDS011;38381;53.688;10.776;2022-11-04T16:38:59;3.95;;;1.40;;
52468;SDS011;38381;53.688;10.776;2022-11-04T16:44:14;1.95;;;1.65;;
52468;SDS011;38381;53.688;10.776;2022-11-04T16:49:19;5.70;;;2.38;;
52468;SDS011;38381;53.688;10.776;2022-11-04T16:54:23;3.85;;;2.45;;
52468;SDS011;38381;53.688;10.776;2022-11-04T16:59:24;5.95;;;4.15;;
52468;SDS011;38381;53.688;10.776;2022-11-04T17:04:24;4.07;;;2.05;;
52468;SDS011;38381;53.688;10.776;2022-11-04T17:09:25;2.22;;;1.75;;
52468;SDS011;38381;53.688;10.776;2022-11-04T17:14:25;6.18;;;2.15;;
52468;SDS011;38381;53.688;10.776;2022-11-04T17:19:26;7.50;;;2.22;;
52468;SDS011;38381;53.688;10.776;2022-11-04T17:24:26;5.20;;;2.70;;
52468;SDS011;38381;53.688;10.776;2022-11-04T17:29:27;4.53;;;3.00;;
52468;SDS011;38381;53.688;10.776;2022-11-04T17:34:29;4.20;;;2.85;;
52468;SDS011;38381;53.688;10.776;2022-11-04T17:39:29;3.67;;;2.67;;
52468;SDS011;38381;53.688;10.776;2022-11-04T17:44:30;3.03;;;2.28;;
52468;SDS011;38381;53.688;10.776;2022-11-04T17:49:33;3.63;;;1.65;;
52468;SDS011;38381;53.688;10.776;2022-11-04T17:54:35;2.58;;;2.10;;
52468;SDS011;38381;53.688;10.776;2022-11-04T17:59:35;6.45;;;2.03;;
52468;SDS011;38381;53.688;10.776;2022-11-04T18:04:35;3.60;;;2.60;;
52468;SDS011;38381;53.688;10.776;2022-11-04T18:09:36;3.95;;;2.97;;
52468;SDS011;38381;53.688;10.776;2022-11-04T18:14:38;4.57;;;2.67;;
52468;SDS011;38381;53.688;10.776;2022-11-04T18:19:38;10.52;;;5.05;;
52468;SDS011;38381;53.688;10.776;2022-11-04T18:24:39;4.60;;;4.07;;
52468;SDS011;38381;53.688;10.776;2022-11-04T18:29:39;5.28;;;2.70;;
52468;SDS011;38381;53.688;10.776;2022-11-04T18:34:40;2.83;;;2.50;;
52468;SDS011;38381;53.688;10.776;2022-11-04T18:39:40;2.97;;;2.33;;
52468;SDS011;38381;53.688;10.776;2022-11-04T18:44:42;2.95;;;2.10;;
52468;SDS011;38381;53.688;10.776;2022-11-04T18:49:42;3.60;;;2.47;;
52468;SDS011;38381;53.688;10.776;2022-11-04T18:54:43;3.60;;;2.20;;
52468;SDS011;38381;53.688;10.776;2022-11-04T18:59:44;5.10;;;2.65;;
52468;SDS011;38381;53.688;10.776;2022-11-04T19:04:45;4.63;;;2.85;;
52468;SDS011;38381;53.688;10.776;2022-11-04T19:09:45;5.90;;;3.50;;
52468;SDS011;38381;53.688;10.776;2022-11-04T19:14:45;6.15;;;3.03;;
52468;SDS011;38381;53.688;10.776;2022-11-04T19:19:46;3.90;;;2.90;;
52468;SDS011;38381;53.688;10.776;2022-11-04T19:24:46;4.20;;;3.22;;
52468;SDS011;38381;53.688;10.776;2022-11-04T19:29:47;5.82;;;3.03;;
52468;SDS011;38381;53.688;10.776;2022-11-04T19:34:48;5.45;;;3.20;;
52468;SDS011;38381;53.688;10.776;2022-11-04T19:39:48;4.90;;;2.47;;
52468;SDS011;38381;53.688;10.776;2022-11-04T19:44:49;5.05;;;2.40;;
52468;SDS011;38381;53.688;10.776;2022-11-04T19:49:49;4.38;;;2.65;;
52468;SDS011;38381;53.688;10.776;2022-11-04T19:54:50;4.97;;;3.50;;
52468;SDS011;38381;53.688;10.776;2022-11-04T19:59:50;6.25;;;3.95;;
52468;SDS011;38381;53.688;10.776;2022-11-04T20:04:51;4.72;;;3.38;;
52468;SDS011;38381;53.688;10.776;2022-11-04T20:09:52;6.60;;;3.15;;
52468;SDS011;38381;53.688;10.776;2022-11-04T20:14:53;5.53;;;3.72;;
52468;SDS011;38381;53.688;10.776;2022-11-04T20:19:57;6.50;;;2.92;;
52468;SDS011;38381;53.688;10.776;2022-11-04T20:24:57;7.28;;;3.50;;
52468;SDS011;38381;53.688;10.776;2022-11-04T20:29:57;7.82;;;5.00;;
52468;SDS011;38381;53.688;10.776;2022-11-04T20:34:58;9.07;;;5.43;;
52468;SDS011;38381;53.688;10.776;2022-11-04T20:39:59;7.15;;;4.25;;
52468;SDS011;38381;53.688;10.776;2022-11-04T20:44:59;6.47;;;4.22;;
52468;SDS011;38381;53.688;10.776;2022-11-04T20:50:00;6.03;;;3.67;;
52468;SDS011;38381;53.688;10.776;2022-11-04T20:55:00;8.70;;;4.30;;
52468;SDS011;38381;53.688;10.776;2022-11-04T21:00:00;11.20;;;5.20;;
52468;SDS011;38381;53.688;10.776;2022-11-04T21:05:01;11.32;;;4.85;;
52468;SDS011;38381;53.688;10.776;2022-11-04T21:10:01;7.45;;;4.13;;
52468;SDS011;38381;53.688;10.776;2022-11-04T21:15:02;6.80;;;4.20;;
52468;SDS011;38381;53.688;10.776;2022-11-04T21:20:03;6.97;;;4.03;;
52468;SDS011;38381;53.688;10.776;2022-11-04T21:25:04;5.38;;;4.22;;
52468;SDS011;38381;53.688;10.776;2022-11-04T21:30:05;9.00;;;4.25;;
52468;SDS011;38381;53.688;10.776;2022-11-04T21:35:07;6.83;;;3.23;;
52468;SDS011;38381;53.688;10.776;2022-11-04T21:40:08;8.10;;;4.10;;
52468;SDS011;38381;53.688;10.776;2022-11-04T21:45:08;5.55;;;3.95;;
52468;SDS011;38381;53.688;10.776;2022-11-04T21:50:09;4.88;;;3.78;;
52468;SDS011;38381;53.688;10.776;2022-11-04T21:55:10;10.50;;;4.47;;
52468;SDS011;38381;53.688;10.776;2022-11-04T22:00:11;3.55;;;2.85;;
52468;SDS011;38381;53.688;10.776;2022-11-04T22:05:15;5.47;;;3.63;;
52468;SDS011;38381;53.688;10.776;2022-11-04T22:10:16;6.53;;;4.47;;
52468;SDS011;38381;53.688;10.776;2022-11-04T22:15:16;8.48;;;4.03;;
52468;SDS011;38381;53.688;10.776;2022-11-04T22:20:37;10.75;;;4.45;;
52468;SDS011;38381;53.688;10.776;2022-11-04T22:25:38;6.80;;;3.42;;
52468;SDS011;38381;53.688;10.776;2022-11-04T22:30:38;8.35;;;3.67;;
52468;SDS011;38381;53.688;10.776;2022-11-04T22:35:39;5.80;;;3.95;;
52468;SDS011;38381;53.688;10.776;2022-11-04T22:40:39;6.97;;;4.38;;
52468;SDS011;38381;53.688;10.776;2022-11-04T22:45:40;4.53;;;3.95;;
52468;SDS011;38381;53.688;10.776;2022-11-04T22:50:40;5.60;;;3.58;;
52468;SDS011;38381;53.688;10.776;2022-11-04T22:55:40;5.07;;;4.37;;
52468;SDS011;38381;53.688;10.776;2022-11-04T23:00:41;7.40;;;4.63;;
52468;SDS011;38381;53.688;10.776;2022-11-04T23:05:41;9.63;;;4.90;;
52468;SDS011;38381;53.688;10.776;2022-11-04T23:10:42;7.60;;;4.70;;
52468;SDS011;38381;53.688;10.776;2022-11-04T23:16:01;10.00;;;4.30;;
52468;SDS011;38381;53.688;10.776;2022-11-04T23:21:20;6.57;;;4.00;;
52468;SDS011;38381;53.688;10.776;2022-11-04T23:26:40;8.60;;;4.28;;
52468;SDS011;38381;53.688;10.776;2022-11-04T23:31:41;9.45;;;4.85;;
52468;SDS011;38381;53.688;10.776;2022-11-04T23:36:41;12.82;;;5.28;;
52468;SDS011;38381;53.688;10.776;2022-11-04T23:42:00;4.28;;;3.88;;
52468;SDS011;38381;53.688;10.776;2022-11-04T23:47:16;7.75;;;4.20;;
52468;SDS011;38381;53.688;10.776;2022-11-04T23:52:35;7.20;;;3.60;;
52468;SDS011;38381;53.688;10.776;2022-11-04T23:57:53;11.43;;;4.57;;
